Time;durP1;ratioP1;P1;durP2;ratioP2;P2;SDS_P1;SDS_P2;PMS_P1;PMS_P2;Temp;Humidity;BMP_temperature;BMP_pressure;BME280_temperature;BME280_humidity;BME280_pressure;Samples;Min_cycle;Max_cycle;Signal;HPM_P1;HPM_P2
2023/07/15 00:01:20;;;;;;;4.57;4.17;;;19.30;66.40;;;19.20;59.42;97501.97;5027965;28;20943;-72
2023/07/15 00:03:49;;;;;;;4.40;4.00;;;19.30;66.70;;;19.22;59.25;97517.03;5031163;28;21042;-72
2023/07/15 00:06:18;;;;;;;4.07;3.77;;;19.30;66.80;;;19.17;59.54;97508.81;5062239;28;20593;-71
2023/07/15 00:08:46;;;;;;;5.53;4.50;;;19.20;67.10;;;19.19;59.81;97501.19;5037741;28;20505;-71
2023/07/15 00:11:17;;;;;;;4.87;4.37;;;19.20;67.60;;;19.17;59.82;97503.34;5059905;28;20508;-76
2023/07/15 00:13:44;;;;;;;6.30;4.50;;;19.20;67.70;;;19.13;59.73;97510.50;5030639;28;20915;-73
2023/07/15 00:16:11;;;;;;;5.53;4.23;;;19.20;67.90;;;19.05;60.28;97502.91;5049036;28;20496;-72
2023/07/15 00:18:38;;;;;;;4.50;4.13;;;19.10;68.30;;;19.07;60.17;97503.44;5035466;28;20545;-73
2023/07/15 00:21:20;;;;;;;4.20;3.80;;;19.20;68.60;;;19.04;60.21;97482.91;5031094;28;20453;-74
2023/07/15 00:23:48;;;;;;;4.40;4.00;;;19.10;68.70;;;19.04;60.26;97493.06;5030513;28;20563;-72
2023/07/15 00:26:15;;;;;;;4.57;4.10;;;19.10;68.90;;;18.87;60.37;97472.31;5052845;28;20812;-72
2023/07/15 00:28:42;;;;;;;4.37;3.97;;;19.10;69.00;;;19.07;59.98;97492.50;5039649;28;20973;-73
2023/07/15 00:31:14;;;;;;;5.13;4.47;;;19.10;69.00;;;19.00;60.34;97498.28;5028807;28;20500;-73
2023/07/15 00:33:42;;;;;;;4.80;4.30;;;19.10;69.30;;;19.10;59.99;97500.13;5045940;28;20478;-72
2023/07/15 00:36:14;;;;;;;4.43;4.10;;;19.10;69.20;;;18.97;60.25;97487.88;5032365;28;20968;-72
2023/07/15 00:38:44;;;;;;;4.80;4.27;;;19.10;69.50;;;19.04;60.26;97498.53;5030171;28;21001;-72
2023/07/15 00:41:18;;;;;;;4.13;3.83;;;19.10;69.40;;;19.03;60.12;97497.72;5031330;28;20946;-72
2023/07/15 00:43:54;;;;;;;4.43;4.03;;;19.10;69.80;;;18.93;60.17;97493.09;5040321;28;20474;-73
2023/07/15 00:46:46;;;;;;;4.60;3.90;;;19.10;69.50;;;18.98;60.29;97498.53;5039335;28;20449;-72
2023/07/15 00:49:19;;;;;;;4.57;4.00;;;19.10;69.60;;;19.00;60.09;97489.25;5043004;28;21069;-72
2023/07/15 00:51:50;;;;;;;4.23;3.93;;;19.10;69.70;;;18.95;60.49;97507.31;5027266;28;20446;-71
2023/07/15 00:54:18;;;;;;;4.50;4.20;;;19.00;69.70;;;18.92;60.37;97504.31;5034339;28;20460;-71
2023/07/15 00:56:46;;;;;;;4.20;3.80;;;19.00;69.80;;;18.88;60.57;97505.97;5029017;28;20450;-72
2023/07/15 00:59:17;;;;;;;4.10;3.80;;;19.10;70.00;;;18.99;60.34;97510.34;5062273;28;20469;-73
2023/07/15 01:01:46;;;;;;;4.37;3.90;;;19.00;70.00;;;18.93;60.46;97504.03;5028117;28;20434;-74
2023/07/15 01:04:13;;;;;;;4.57;4.20;;;19.00;70.00;;;18.86;60.70;97509.00;5044281;28;20486;-71
2023/07/15 01:06:41;;;;;;;3.97;3.57;;;19.00;70.20;;;18.89;60.66;97508.44;5029612;28;20458;-73
2023/07/15 01:09:09;;;;;;;4.40;3.80;;;19.00;70.20;;;18.76;60.64;97498.13;5032868;28;20937;-72
2023/07/15 01:11:37;;;;;;;4.37;3.97;;;19.00;70.40;;;18.80;60.91;97508.22;5060963;28;20466;-73
2023/07/15 01:14:05;;;;;;;4.47;4.07;;;19.00;70.50;;;18.78;60.76;97507.66;5043565;28;20547;-71
2023/07/15 01:16:33;;;;;;;4.80;4.40;;;18.90;70.60;;;18.86;60.79;97511.72;5049315;28;20442;-72
2023/07/15 01:19:02;;;;;;;4.30;3.97;;;18.90;70.80;;;18.79;60.95;97503.03;5046168;28;20443;-72
2023/07/15 01:21:33;;;;;;;5.90;4.63;;;18.90;70.90;;;18.64;61.26;97493.78;5059984;28;20508;-73
2023/07/15 01:24:03;;;;;;;4.67;4.27;;;18.80;71.00;;;18.74;61.25;97498.38;5031864;28;20471;-73
2023/07/15 01:26:30;;;;;;;4.67;4.27;;;18.80;71.30;;;18.74;61.32;97501.13;5027027;28;20969;-73
2023/07/15 01:28:57;;;;;;;4.93;4.53;;;18.90;71.40;;;18.52;61.75;97472.25;5030266;28;21276;-72
2023/07/15 01:31:26;;;;;;;4.37;4.00;;;18.80;71.50;;;18.60;61.39;97490.00;5027781;28;20446;-73
2023/07/15 01:33:53;;;;;;;5.03;4.63;;;18.80;71.70;;;18.45;61.78;97477.19;5034839;28;20957;-72
2023/07/15 01:36:21;;;;;;;5.00;4.50;;;18.80;71.80;;;18.65;61.75;97491.84;5051010;28;20446;-72
2023/07/15 01:38:49;;;;;;;4.87;4.37;;;18.70;71.90;;;18.67;61.72;97486.94;5028821;28;20554;-72
2023/07/15 01:41:17;;;;;;;4.53;4.10;;;18.80;72.10;;;18.62;61.92;97492.44;5025403;28;20459;-72
2023/07/15 01:43:45;;;;;;;5.07;4.57;;;18.70;72.20;;;18.61;61.80;97493.53;5028710;28;20543;-71
2023/07/15 01:46:12;;;;;;;4.50;4.10;;;18.70;72.20;;;18.61;61.94;97491.63;5030861;28;20933;-72
2023/07/15 01:48:39;;;;;;;5.40;3.90;;;18.70;72.50;;;18.40;62.06;97467.09;5029013;28;20479;-74
2023/07/15 01:51:07;;;;;;;4.40;4.10;;;18.70;72.50;;;18.61;62.00;97491.63;5049447;28;20532;-74
2023/07/15 01:53:34;;;;;;;4.60;4.20;;;18.70;72.60;;;18.54;62.07;97491.09;5028456;28;20494;-71
2023/07/15 01:56:01;;;;;;;4.27;3.93;;;18.70;72.70;;;18.61;62.00;97497.09;5030014;28;20438;-72
2023/07/15 01:58:29;;;;;;;5.93;4.60;;;18.70;72.80;;;18.53;62.18;97486.72;5038220;28;20462;-72
2023/07/15 02:00:57;;;;;;;4.70;3.87;;;18.70;72.90;;;18.54;62.19;97496.56;5039181;28;20454;-72
2023/07/15 02:03:24;;;;;;;3.87;3.57;;;18.70;73.00;;;18.58;62.15;97492.19;5026506;28;20493;-72
2023/07/15 02:05:52;;;;;;;4.03;3.73;;;18.70;73.10;;;18.54;62.24;97491.09;5036213;28;20510;-73
2023/07/15 02:08:22;;;;;;;4.10;3.70;;;18.60;73.10;;;18.55;62.13;97488.09;5031806;28;20451;-74
2023/07/15 02:10:49;;;;;;;4.30;3.90;;;18.70;73.20;;;18.48;62.55;97486.75;5025841;28;20462;-72
2023/07/15 02:13:18;;;;;;;4.03;3.70;;;18.60;73.30;;;18.55;62.28;97482.63;5029561;28;20465;-72
2023/07/15 02:15:47;;;;;;;4.70;4.10;;;18.70;73.40;;;18.48;62.55;97484.03;5028363;28;20521;-74
2023/07/15 02:18:26;;;;;;;4.60;4.00;;;18.60;73.50;;;18.51;62.42;97488.94;5028445;28;20462;-72
2023/07/15 02:20:54;;;;;;;4.27;3.97;;;18.60;73.60;;;18.50;62.44;97476.34;5026675;28;20465;-73
2023/07/15 02:23:22;;;;;;;4.23;3.83;;;18.60;73.80;;;18.52;62.59;97487.81;5019871;28;20466;-73
2023/07/15 02:25:51;;;;;;;4.40;4.00;;;18.60;74.00;;;18.59;62.46;97493.81;5040202;28;20455;-72
2023/07/15 02:28:20;;;;;;;3.90;3.60;;;18.60;74.10;;;18.50;62.81;97484.56;5032530;28;20541;-73
2023/07/15 02:30:48;;;;;;;4.20;3.90;;;18.60;74.10;;;18.41;62.83;97471.44;5032301;28;20446;-74
2023/07/15 02:33:16;;;;;;;4.50;4.10;;;18.60;74.10;;;18.48;62.70;97473.88;5026527;28;20509;-71
2023/07/15 02:35:43;;;;;;;4.20;3.90;;;18.60;74.10;;;18.44;62.92;97464.63;5060018;28;20509;-71
2023/07/15 02:38:10;;;;;;;4.40;4.00;;;18.60;74.40;;;18.38;63.01;97463.00;5031335;28;20531;-72
2023/07/15 02:40:38;;;;;;;4.00;3.43;;;18.60;74.40;;;18.45;63.08;97482.66;5036316;28;20516;-72
2023/07/15 02:43:05;;;;;;;4.27;3.87;;;18.50;74.50;;;18.40;63.09;97469.81;5029628;28;20509;-72
2023/07/15 02:45:32;;;;;;;4.50;4.10;;;18.50;74.80;;;18.46;63.01;97480.75;5025917;28;20508;-72
2023/07/15 02:48:01;;;;;;;4.33;3.93;;;18.50;74.70;;;18.35;63.26;97478.06;5031465;28;20458;-72
2023/07/15 02:50:28;;;;;;;4.20;3.90;;;18.50;74.80;;;18.39;63.23;97479.13;5032286;28;20454;-71
2023/07/15 02:52:55;;;;;;;4.27;3.87;;;18.50;74.80;;;18.48;62.90;97484.81;5040046;28;20558;-73
2023/07/15 02:55:22;;;;;;;4.17;3.77;;;18.50;74.80;;;18.39;63.17;97479.13;5026051;28;20516;-73
2023/07/15 02:57:50;;;;;;;4.73;4.33;;;18.50;74.80;;;18.45;62.92;97470.91;5030066;28;20453;-71
2023/07/15 03:00:18;;;;;;;4.03;3.63;;;18.50;74.90;;;18.39;63.61;97468.19;5027594;28;20450;-73
2023/07/15 03:02:47;;;;;;;4.03;3.63;;;18.50;75.10;;;18.31;63.40;97465.22;5026586;28;20467;-72
2023/07/15 03:05:16;;;;;;;4.20;3.80;;;18.50;75.20;;;18.43;63.36;97478.59;5050811;28;20487;-74
2023/07/15 03:07:45;;;;;;;5.40;4.37;;;18.50;75.10;;;18.27;63.48;97482.19;5026835;28;20963;-72
2023/07/15 03:10:13;;;;;;;3.97;3.67;;;18.50;75.10;;;18.34;63.42;97479.16;5026488;28;20450;-72
2023/07/15 03:12:40;;;;;;;6.03;4.43;;;18.50;75.20;;;18.31;63.49;97476.97;5027362;28;20540;-71
2023/07/15 03:15:09;;;;;;;4.30;3.90;;;18.40;75.20;;;18.27;63.59;97478.63;5028772;28;20458;-73
2023/07/15 03:17:36;;;;;;;4.07;3.77;;;18.40;75.30;;;18.22;63.70;97481.38;5025427;28;20455;-72
2023/07/15 03:20:10;;;;;;;3.97;3.63;;;18.40;75.40;;;18.24;63.56;97474.53;5026447;28;20535;-74
2023/07/15 03:22:39;;;;;;;3.70;3.40;;;18.40;75.50;;;18.19;63.61;97460.06;5033358;28;20670;-71
2023/07/15 03:25:08;;;;;;;3.80;3.50;;;18.40;75.50;;;18.27;63.74;97486.81;5035356;28;20454;-72
2023/07/15 03:27:35;;;;;;;4.20;3.90;;;18.40;75.60;;;18.25;63.72;97487.13;5028433;28;20804;-72
2023/07/15 03:30:02;;;;;;;3.37;3.17;;;18.40;75.60;;;18.24;63.67;97488.22;5029133;28;20516;-73
2023/07/15 03:32:29;;;;;;;3.53;3.23;;;18.40;75.70;;;18.27;63.82;97481.34;5023601;28;20493;-73
2023/07/15 03:34:56;;;;;;;4.17;3.80;;;18.40;76.10;;;18.36;63.58;97482.41;5028726;28;20450;-73
2023/07/15 03:37:23;;;;;;;4.90;3.43;;;18.40;75.70;;;18.19;63.57;97473.75;5026420;28;20545;-71
2023/07/15 03:39:54;;;;;;;3.80;3.50;;;18.40;75.70;;;18.38;63.53;97474.75;5042256;28;20455;-73
2023/07/15 03:42:21;;;;;;;3.40;3.20;;;18.50;75.80;;;18.45;63.56;97479.13;5024198;28;20450;-71
2023/07/15 03:44:49;;;;;;;4.27;3.87;;;18.50;75.80;;;18.52;63.22;97487.81;5039347;28;20552;-72
2023/07/15 03:47:16;;;;;;;4.33;4.03;;;18.60;75.70;;;18.45;63.38;97481.84;5024927;28;20455;-72
2023/07/15 03:49:43;;;;;;;4.10;3.70;;;18.60;75.70;;;18.46;63.76;97480.75;5025500;28;20958;-72
2023/07/15 03:52:11;;;;;;;5.20;4.33;;;18.60;76.10;;;18.53;63.42;97486.72;5032554;28;20959;-73
2023/07/15 03:54:38;;;;;;;4.27;3.87;;;18.60;75.90;;;18.58;63.59;97486.72;5025865;28;20455;-72
2023/07/15 03:57:06;;;;;;;3.93;3.63;;;18.60;76.10;;;18.63;63.20;97494.06;5024487;28;20482;-73
2023/07/15 03:59:34;;;;;;;4.17;3.77;;;18.70;75.90;;;18.73;63.05;97494.03;5025208;28;20450;-73
2023/07/15 04:02:01;;;;;;;4.13;3.83;;;18.70;75.90;;;18.63;63.16;97494.91;5023525;28;20541;-72
2023/07/15 04:04:29;;;;;;;3.90;3.60;;;18.70;75.80;;;18.65;63.49;97492.69;5036715;28;20478;-73
2023/07/15 04:06:58;;;;;;;4.10;3.80;;;18.70;76.00;;;18.69;63.32;97496.50;5025986;28;20450;-72
2023/07/15 04:09:25;;;;;;;4.00;3.40;;;18.80;76.00;;;18.67;63.43;97490.47;5031802;28;20550;-75
2023/07/15 04:11:53;;;;;;;3.63;3.40;;;18.80;75.90;;;18.80;63.08;97499.19;5025587;28;20462;-72
2023/07/15 04:14:21;;;;;;;4.20;3.80;;;18.90;75.90;;;19.04;62.48;97493.06;5031010;28;20456;-73
2023/07/15 04:16:49;;;;;;;3.97;3.67;;;19.10;75.60;;;19.36;61.11;97494.47;5035856;28;20446;-72
2023/07/15 04:19:16;;;;;;;4.27;3.87;;;19.50;75.00;;;19.99;59.36;97484.63;5038802;28;20533;-75
2023/07/15 04:21:43;;;;;;;4.00;3.70;;;20.20;73.80;;;20.74;57.73;97492.53;5035440;28;21174;-74
2023/07/15 04:24:10;;;;;;;3.83;3.43;;;21.00;72.30;;;21.61;54.85;97493.16;5039500;28;20512;-74
2023/07/15 04:26:38;;;;;;;3.47;2.97;;;21.80;70.50;;;21.87;53.69;97484.50;5031432;28;20919;-75
2023/07/15 04:29:06;;;;;;;4.03;3.73;;;22.40;68.90;;;22.63;52.07;97499.81;5032454;28;20518;-74
2023/07/15 04:31:35;;;;;;;3.60;3.30;;;23.10;67.60;;;23.84;48.63;97490.44;5024778;28;21043;-72
2023/07/15 04:34:02;;;;;;;3.03;2.83;;;24.10;65.30;;;23.69;48.42;97484.19;5026396;28;20458;-73
2023/07/15 04:36:29;;;;;;;3.23;3.03;;;24.40;63.80;;;23.27;49.56;97484.41;5036518;28;20914;-72
2023/07/15 04:38:57;;;;;;;4.10;3.33;;;24.00;63.60;;;23.23;49.53;97494.41;5029447;28;21017;-73
2023/07/15 04:41:24;;;;;;;4.00;3.70;;;23.90;63.50;;;23.46;49.27;97503.53;5028849;28;20731;-73
2023/07/15 04:43:51;;;;;;;3.70;3.40;;;23.80;63.50;;;24.18;47.48;97492.59;5060819;28;20626;-73
2023/07/15 04:46:18;;;;;;;4.73;3.37;;;24.50;62.80;;;24.35;47.70;97504.03;5027836;28;20491;-73
2023/07/15 04:48:46;;;;;;;4.80;3.50;;;24.90;62.00;;;24.68;46.21;97489.84;5029078;28;20752;-74
2023/07/15 04:51:14;;;;;;;5.23;3.40;;;25.20;61.10;;;24.75;46.24;97502.06;5027542;28;20823;-73
2023/07/15 04:53:43;;;;;;;3.63;3.33;;;25.20;61.10;;;25.05;45.94;97498.69;5034597;28;20548;-75
2023/07/15 04:56:13;;;;;;;3.30;3.00;;;25.20;60.90;;;25.24;45.60;97501.16;5025466;28;20454;-75
2023/07/15 04:58:40;;;;;;;3.97;2.67;;;25.60;60.40;;;25.81;44.23;97501.28;5033648;28;20460;-74
2023/07/15 05:01:07;;;;;;;3.53;3.23;;;26.10;59.80;;;25.99;43.41;97494.56;5045403;28;21006;-75
2023/07/15 05:03:35;;;;;;;5.43;2.83;;;26.40;58.90;;;26.14;43.59;97492.38;5029716;28;21251;-72
2023/07/15 05:06:03;;;;;;;3.13;2.90;;;26.60;58.60;;;26.59;42.83;97502.97;5028516;28;20486;-72
2023/07/15 05:08:30;;;;;;;3.10;2.83;;;26.80;58.30;;;26.74;42.42;97498.00;5028166;28;20443;-71
2023/07/15 05:10:58;;;;;;;3.30;3.10;;;27.10;57.80;;;26.77;42.50;97505.66;5026178;28;20473;-74
2023/07/15 05:13:26;;;;;;;3.57;3.27;;;27.10;57.40;;;27.43;40.98;97506.97;5028886;28;20454;-72
2023/07/15 05:15:53;;;;;;;3.07;2.87;;;27.80;56.90;;;27.71;40.61;97494.50;5034301;28;20504;-74
2023/07/15 05:18:21;;;;;;;3.47;3.27;;;27.90;56.40;;;26.75;41.96;97494.06;5028345;28;20551;-72
2023/07/15 05:20:50;;;;;;;3.20;2.93;;;27.60;56.40;;;26.14;43.73;97514.53;5034735;28;20461;-74
2023/07/15 05:23:20;;;;;;;3.50;3.30;;;26.80;57.00;;;25.80;44.59;97500.47;5026884;28;20437;-72
2023/07/15 05:25:48;;;;;;;3.73;3.43;;;26.70;57.30;;;26.31;43.42;97474.94;5044523;28;20457;-74
2023/07/15 05:28:16;;;;;;;4.10;3.80;;;27.10;57.20;;;26.84;42.98;97505.94;5028331;28;20963;-73
2023/07/15 05:30:44;;;;;;;3.33;3.03;;;27.40;56.90;;;26.22;44.01;97499.88;5032148;28;20531;-75
2023/07/15 05:33:12;;;;;;;3.30;3.10;;;27.30;56.80;;;26.71;43.30;97501.44;5026472;28;20534;-74
2023/07/15 05:35:40;;;;;;;4.30;3.70;;;27.30;56.90;;;26.65;43.42;97509.13;5028818;28;20446;-72
2023/07/15 05:38:08;;;;;;;3.30;3.00;;;27.40;56.80;;;26.59;43.62;97508.50;5060649;28;20561;-74
2023/07/15 05:40:41;;;;;;;3.20;2.90;;;27.30;56.90;;;25.93;44.28;97459.91;5031863;28;20450;-74
2023/07/15 05:43:09;;;;;;;3.13;2.83;;;27.10;57.00;;;26.19;44.47;97511.63;5028508;28;20456;-72
2023/07/15 05:45:36;;;;;;;3.27;3.07;;;26.70;57.60;;;26.63;43.94;97507.84;5061475;28;20478;-72
2023/07/15 05:48:05;;;;;;;4.07;3.40;;;27.30;57.20;;;26.97;43.29;97506.03;5060242;28;20442;-73
2023/07/15 05:50:36;;;;;;;4.20;3.90;;;27.30;57.10;;;27.54;42.32;97512.16;5030595;28;20895;-74
2023/07/15 05:53:04;;;;;;;3.80;3.43;;;27.80;56.70;;;27.33;42.47;97518.47;5032390;28;20559;-73
2023/07/15 05:55:33;;;;;;;3.70;2.97;;;27.80;56.60;;;26.95;43.12;97516.66;5035071;28;20528;-72
2023/07/15 05:58:02;;;;;;;3.70;3.40;;;27.50;56.70;;;27.65;41.70;97510.56;5029161;28;20450;-76
2023/07/15 06:00:30;;;;;;;3.73;3.43;;;28.10;56.20;;;27.15;42.63;97507.53;5033850;28;20459;-74
2023/07/15 06:02:57;;;;;;;3.70;3.40;;;27.80;56.20;;;27.42;41.86;97499.00;5031738;28;20456;-75
2023/07/15 06:05:24;;;;;;;3.53;3.20;;;28.30;55.80;;;27.70;41.76;97515.09;5027705;28;20551;-74
2023/07/15 06:07:52;;;;;;;3.67;3.37;;;28.30;55.80;;;27.35;42.29;97513.41;5026376;28;20476;-73
2023/07/15 06:10:19;;;;;;;3.57;3.27;;;28.20;55.50;;;27.03;42.95;97510.22;5026283;28;20973;-73
2023/07/15 06:12:46;;;;;;;4.77;3.63;;;27.80;56.00;;;27.13;42.80;97509.84;5029706;28;20450;-74
2023/07/15 06:15:14;;;;;;;2.83;2.63;;;27.90;55.80;;;27.94;41.26;97508.78;5037988;28;20447;-71
2023/07/15 06:17:41;;;;;;;3.27;3.00;;;28.40;55.60;;;27.65;41.73;97493.91;5028000;28;20526;-73
2023/07/15 06:20:11;;;;;;;4.40;4.03;;;28.80;55.10;;;27.77;41.24;97508.97;5028645;28;20457;-73
2023/07/15 06:22:38;;;;;;;3.33;3.03;;;28.60;55.00;;;27.76;41.62;97512.91;5029975;28;20438;-72
2023/07/15 06:25:06;;;;;;;3.63;2.97;;;28.50;55.00;;;28.07;41.07;97500.50;5026053;28;20512;-74
2023/07/15 06:27:34;;;;;;;5.20;3.10;;;28.60;55.00;;;27.67;41.80;97496.34;5033042;28;20512;-72
2023/07/15 06:30:01;;;;;;;3.20;3.00;;;28.30;55.10;;;27.01;43.06;97495.91;5031462;28;20543;-73
2023/07/15 06:32:29;;;;;;;3.70;2.90;;;27.70;55.70;;;26.12;45.28;97508.53;5024902;28;20467;-73
2023/07/15 06:34:57;;;;;;;7.33;3.33;;;26.80;56.60;;;25.67;46.83;97505.03;5028391;28;20507;-74
2023/07/15 06:37:24;;;;;;;3.43;3.23;;;26.10;57.80;;;25.12;47.87;97493.53;5063369;28;20549;-73
2023/07/15 06:39:51;;;;;;;3.40;3.20;;;25.50;58.40;;;24.97;48.40;97497.56;5027935;28;20451;-72
2023/07/15 06:42:19;;;;;;;3.50;3.20;;;25.10;59.10;;;24.93;48.21;97496.59;5025290;28;20447;-74
2023/07/15 06:44:46;;;;;;;3.50;3.20;;;25.10;59.30;;;24.49;48.83;97449.50;5026850;28;20473;-72
2023/07/15 06:47:14;;;;;;;3.87;3.53;;;25.00;59.70;;;24.95;48.80;97507.31;5031884;28;20513;-73
2023/07/15 06:49:42;;;;;;;3.93;3.63;;;25.00;60.00;;;25.28;48.29;97496.59;5026198;28;20926;-74
2023/07/15 06:52:10;;;;;;;5.27;3.60;;;25.20;60.20;;;25.35;47.98;97498.88;5025972;28;20438;-73
2023/07/15 06:54:37;;;;;;;4.90;4.03;;;25.30;59.90;;;25.06;47.76;97461.63;5032984;28;20465;-72
2023/07/15 06:57:05;;;;;;;4.13;3.70;;;25.40;59.80;;;25.29;48.09;97489.13;5046390;28;20518;-73
2023/07/15 06:59:32;;;;;;;4.10;3.80;;;25.30;59.90;;;25.45;47.54;97490.25;5032188;28;20565;-74
2023/07/15 07:01:59;;;;;;;3.80;3.50;;;25.40;59.80;;;25.46;47.81;97491.03;5059973;28;20457;-74
2023/07/15 07:04:26;;;;;;;3.20;3.00;;;25.50;59.90;;;25.52;47.34;97494.50;5031773;28;20855;-73
2023/07/15 07:06:55;;;;;;;3.87;3.57;;;25.50;59.70;;;25.66;46.98;97484.06;5033386;28;20792;-72
2023/07/15 07:09:22;;;;;;;3.90;3.60;;;25.70;59.70;;;25.72;46.56;97479.16;5042166;28;20450;-72
2023/07/15 07:11:50;;;;;;;3.17;2.90;;;25.70;59.40;;;25.74;46.69;97488.78;5031747;28;20507;-73
2023/07/15 07:14:18;;;;;;;3.93;3.53;;;25.70;59.50;;;25.84;46.68;97472.94;5035660;28;20469;-74
2023/07/15 07:16:45;;;;;;;2.90;2.70;;;25.80;59.50;;;26.20;45.66;97479.22;5045316;28;20458;-72
2023/07/15 07:19:13;;;;;;;3.50;3.20;;;26.00;59.20;;;26.46;45.10;97481.84;5025560;28;21002;-73
2023/07/15 07:21:40;;;;;;;3.13;2.93;;;26.30;58.90;;;26.33;45.13;97491.22;5028554;28;20485;-74
2023/07/15 07:24:10;;;;;;;3.80;2.80;;;26.30;58.50;;;26.51;44.79;97490.00;5029261;28;20478;-72
2023/07/15 07:26:37;;;;;;;3.70;3.40;;;26.40;58.20;;;26.59;44.23;97468.94;5033893;28;20730;-73
2023/07/15 07:29:05;;;;;;;3.20;2.90;;;26.60;57.90;;;27.07;43.73;97482.66;5031766;28;20475;-73
2023/07/15 07:31:32;;;;;;;3.23;3.03;;;26.80;58.10;;;27.29;42.88;97473.19;5025193;28;20458;-73
2023/07/15 07:34:00;;;;;;;3.17;2.97;;;27.10;57.60;;;27.28;42.19;97468.78;5031695;28;20486;-73
2023/07/15 07:36:27;;;;;;;2.93;2.73;;;27.20;56.70;;;27.40;42.12;97484.66;5027186;28;20533;-73
2023/07/15 07:38:54;;;;;;;3.70;3.33;;;27.30;56.70;;;27.55;41.61;97477.72;5024995;28;20446;-74
2023/07/15 07:41:23;;;;;;;3.57;3.23;;;27.40;56.60;;;27.65;40.95;97488.38;5055287;28;20455;-74
2023/07/15 07:43:51;;;;;;;3.40;3.10;;;27.60;55.90;;;27.69;40.52;97488.50;5026800;28;20556;-72
2023/07/15 07:46:19;;;;;;;3.27;3.07;;;27.60;55.40;;;27.43;40.42;97472.88;5026043;28;20523;-73
2023/07/15 07:48:46;;;;;;;3.00;2.70;;;27.50;55.20;;;27.74;40.04;97495.81;5026283;28;20454;-73
2023/07/15 07:51:13;;;;;;;2.70;2.50;;;27.60;55.00;;;27.92;39.14;97483.34;5025389;28;20879;-75
2023/07/15 07:53:41;;;;;;;3.20;3.00;;;27.70;54.30;;;28.21;38.79;97470.47;5033420;28;20966;-73
2023/07/15 07:56:11;;;;;;;3.20;2.90;;;27.90;54.20;;;28.30;37.98;97462.03;5024726;28;20492;-73
2023/07/15 07:58:39;;;;;;;3.13;2.83;;;28.20;53.70;;;28.58;37.33;97463.28;5025507;28;20541;-74
2023/07/15 08:01:07;;;;;;;3.23;3.03;;;28.40;53.30;;;28.77;36.95;97455.19;5026036;28;21025;-74
2023/07/15 08:03:34;;;;;;;2.80;2.50;;;28.60;53.20;;;28.86;36.72;97462.59;5025133;28;20571;-74
2023/07/15 08:06:02;;;;;;;2.60;2.37;;;28.70;52.60;;;28.73;36.80;97461.78;5036644;28;21247;-72
2023/07/15 08:08:29;;;;;;;3.17;2.60;;;28.60;52.60;;;29.14;36.70;97462.66;5027622;28;20458;-73
2023/07/15 08:10:56;;;;;;;4.23;3.00;;;28.80;52.80;;;29.06;36.75;97455.25;5066222;28;20450;-74
2023/07/15 08:13:24;;;;;;;2.70;2.50;;;28.80;52.70;;;29.29;35.99;97458.28;5066502;28;20442;-75
2023/07/15 08:15:53;;;;;;;2.67;2.00;;;29.00;52.40;;;29.17;35.95;97450.81;5054567;28;20501;-72
2023/07/15 08:18:20;;;;;;;2.87;2.57;;;29.00;52.00;;;29.47;35.38;97458.84;5030123;28;20444;-73
2023/07/15 08:20:48;;;;;;;3.37;2.70;;;29.20;51.90;;;29.19;34.90;97439.31;5031049;28;20470;-73
2023/07/15 08:23:15;;;;;;;2.97;2.77;;;29.20;51.10;;;29.54;34.60;97450.69;5028278;28;21017;-74
2023/07/15 08:25:42;;;;;;;2.93;2.73;;;29.20;51.10;;;29.67;34.97;97445.06;5028482;28;20573;-74
2023/07/15 08:28:10;;;;;;;2.67;2.47;;;29.40;51.00;;;29.48;34.45;97451.28;5037146;28;20462;-73
2023/07/15 08:30:37;;;;;;;2.43;2.23;;;29.30;50.40;;;29.62;34.24;97443.34;5032364;28;20860;-76
2023/07/15 08:33:07;;;;;;;2.83;2.30;;;29.40;50.50;;;29.94;32.90;97443.38;5042529;28;21182;-74
2023/07/15 08:35:35;;;;;;;2.00;1.90;;;29.60;49.90;;;29.89;33.06;97440.84;5035824;28;20442;-73
2023/07/15 08:38:02;;;;;;;2.53;2.33;;;29.60;49.20;;;30.09;33.11;97444.59;5029294;28;20536;-74
2023/07/15 08:40:31;;;;;;;4.47;2.80;;;29.80;49.50;;;30.14;33.44;97445.47;5036924;28;20450;-75
2023/07/15 08:42:59;;;;;;;2.23;2.03;;;29.90;49.70;;;30.31;32.82;97441.53;5039245;28;20441;-74
2023/07/15 08:45:27;;;;;;;2.60;2.07;;;30.00;49.50;;;30.34;32.67;97449.16;5030085;28;20478;-75
2023/07/15 08:47:55;;;;;;;2.10;2.00;;;30.10;49.40;;;30.39;31.60;97432.16;5029673;28;20447;-74
2023/07/15 08:50:26;;;;;;;2.23;2.13;;;30.20;48.60;;;30.43;31.56;97449.78;5030556;28;20930;-74
2023/07/15 08:52:53;;;;;;;2.40;2.20;;;30.20;48.40;;;30.59;31.96;97454.53;5028365;28;20445;-72
2023/07/15 08:55:22;;;;;;;1.90;1.80;;;30.30;48.50;;;30.74;29.97;97439.78;5050430;28;20814;-73
2023/07/15 08:57:49;;;;;;;1.50;1.40;;;30.50;47.10;;;30.54;30.26;97370.00;5029314;28;20466;-72
2023/07/15 09:00:17;;;;;;;2.40;2.20;;;30.60;47.20;;;30.99;30.60;97441.47;5062976;28;20461;-74
2023/07/15 09:02:44;;;;;;;2.03;1.93;;;30.70;47.30;;;31.02;30.36;97443.53;5036514;28;20459;-74
2023/07/15 09:05:11;;;;;;;1.87;1.77;;;30.70;47.00;;;31.10;30.21;97439.75;5030196;28;20473;-74
2023/07/15 09:07:51;;;;;;;1.80;1.70;;;30.80;46.90;;;31.10;29.96;97434.94;5032457;28;20921;-75
2023/07/15 09:10:18;;;;;;;1.77;1.67;;;30.90;46.90;;;31.12;29.33;97425.41;5033194;28;21163;-73
2023/07/15 09:12:47;;;;;;;2.30;2.10;;;30.90;46.30;;;31.32;29.73;97427.06;5027759;28;20516;-72
2023/07/15 09:15:14;;;;;;;1.70;1.60;;;31.00;46.50;;;31.27;29.62;97430.13;5029062;28;20448;-74
2023/07/15 09:17:51;;;;;;;1.70;1.60;;;31.00;46.50;;;31.24;29.70;97422.50;5029396;28;20513;-74
2023/07/15 09:20:20;;;;;;;2.10;1.67;;;31.00;46.40;;;31.43;29.59;97407.75;5031748;28;20592;-74
2023/07/15 09:22:54;;;;;;;1.70;1.60;;;31.10;46.70;;;31.35;29.77;97394.81;5034896;28;20482;-76
2023/07/15 09:25:22;;;;;;;2.20;2.00;;;31.10;46.40;;;31.47;29.38;97405.81;5044281;28;20473;-74
2023/07/15 09:27:50;;;;;;;2.23;2.03;;;31.10;46.30;;;31.59;28.91;97410.41;5034738;28;20462;-76
2023/07/15 09:30:18;;;;;;;2.17;2.03;;;31.20;46.00;;;31.51;28.28;97373.19;5038051;28;20464;-74
2023/07/15 09:32:47;;;;;;;1.80;1.70;;;31.40;45.50;;;31.57;27.65;97400.81;5028311;28;20457;-75
2023/07/15 09:35:15;;;;;;;1.77;1.67;;;31.30;44.50;;;31.76;27.49;97409.13;5045240;28;20953;-75
2023/07/15 09:37:42;;;;;;;1.77;1.67;;;31.40;44.40;;;32.09;27.19;97412.50;5034710;28;20463;-74
2023/07/15 09:40:14;;;;;;;1.80;1.70;;;31.60;44.40;;;32.31;26.96;97416.47;5029645;28;20515;-74
2023/07/15 09:42:52;;;;;;;2.47;1.90;;;31.90;44.30;;;32.63;25.94;97415.34;5033167;28;20448;-75
2023/07/15 09:45:34;;;;;;;1.70;1.60;;;32.20;44.00;;;32.43;25.51;97407.06;5039944;28;20970;-72
2023/07/15 09:48:01;;;;;;;1.37;1.27;;;32.20;43.00;;;32.58;25.90;97407.28;5032092;28;20809;-76
2023/07/15 09:50:29;;;;;;;1.60;1.50;;;32.20;43.40;;;32.59;26.04;97403.31;5026583;28;20941;-73
2023/07/15 09:53:00;;;;;;;2.30;2.10;;;32.30;43.60;;;32.62;25.57;97392.19;5034198;28;20457;-74
2023/07/15 09:55:30;;;;;;;1.90;1.57;;;32.40;43.00;;;32.69;25.45;97397.06;5030701;28;20457;-73
2023/07/15 09:58:04;;;;;;;1.77;1.57;;;32.40;42.90;;;33.05;25.15;97396.72;5033110;28;20459;-74
2023/07/15 10:00:35;;;;;;;1.53;1.40;;;32.50;43.10;;;33.33;24.96;97390.69;5026399;28;20454;-75
2023/07/15 10:03:04;;;;;;;1.63;1.50;;;32.70;43.00;;;33.55;24.87;97390.13;5030170;28;20950;-74
2023/07/15 10:05:32;;;;;;;1.57;1.47;;;32.90;42.90;;;33.46;24.65;97385.63;5035926;28;20757;-74
2023/07/15 10:08:00;;;;;;;1.67;1.57;;;32.90;42.70;;;33.22;24.86;97386.94;5031366;28;20454;-78
2023/07/15 10:10:29;;;;;;;1.70;1.60;;;32.90;42.50;;;33.17;25.16;97401.28;5033050;28;20447;-73
2023/07/15 10:12:56;;;;;;;1.80;1.60;;;32.80;42.70;;;33.04;25.44;97390.34;5033176;28;20888;-74
2023/07/15 10:15:24;;;;;;;1.90;1.67;;;32.80;42.70;;;32.63;24.85;97303.53;5031063;28;20504;-75
2023/07/15 10:17:51;;;;;;;2.30;1.83;;;32.80;42.80;;;33.53;24.95;97370.91;5028762;28;20451;-76
2023/07/15 10:20:19;;;;;;;2.27;1.73;;;33.00;43.00;;;33.82;24.92;97379.59;5032087;28;20516;-73
2023/07/15 10:22:48;;;;;;;1.77;1.67;;;33.20;42.80;;;33.79;24.75;97371.13;5031659;28;20451;-74
2023/07/15 10:25:16;;;;;;;1.60;1.50;;;33.30;42.60;;;34.15;24.50;97383.47;5051713;28;20473;-73